createdAt,value
2018-11-21T00:00:00.125Z,3.71
2018-11-21T00:02:34.946Z,3.62
2018-11-21T00:05:10.166Z,3.55
2018-11-21T00:07:42.980Z,3.48
2018-11-21T00:10:17.492Z,3.46
2018-11-21T00:12:53.652Z,3.43
2018-11-21T00:15:26.832Z,3.45
2018-11-21T00:17:59.667Z,3.44
2018-11-21T00:20:32.995Z,3.35
2018-11-21T00:23:06.037Z,3.25
2018-11-21T00:25:39.408Z,3.25
2018-11-21T00:28:12.156Z,3.23
2018-11-21T00:30:45.335Z,3.20
2018-11-21T00:33:18.624Z,3.20
2018-11-21T00:35:53.698Z,3.20
2018-11-21T00:38:26.953Z,3.13
2018-11-21T00:41:00.816Z,3.05
2018-11-21T00:43:34.502Z,3.03
2018-11-21T00:46:07.905Z,3.03
2018-11-21T00:48:42.272Z,2.94
2018-11-21T00:51:15.201Z,2.81
2018-11-21T00:53:48.523Z,2.74
2018-11-21T00:56:21.996Z,2.69
2018-11-21T00:58:54.752Z,2.79
2018-11-21T01:01:29.245Z,2.77
2018-11-21T01:04:02.539Z,2.72
2018-11-21T01:06:36.398Z,2.60
2018-11-21T01:09:12.997Z,2.55
2018-11-21T01:11:46.569Z,2.52
2018-11-21T01:14:19.434Z,2.43
2018-11-21T01:16:52.246Z,2.30
2018-11-21T01:19:25.346Z,2.32
2018-11-21T01:21:58.817Z,2.22
2018-11-21T01:24:31.927Z,2.13
2018-11-21T01:27:04.819Z,2.11
2018-11-21T01:29:38.608Z,2.15
2018-11-21T01:32:11.834Z,2.14
2018-11-21T01:34:44.546Z,2.15
2018-11-21T01:37:17.957Z,2.20
2018-11-21T01:39:50.696Z,2.29
2018-11-21T01:42:24.176Z,2.42
2018-11-21T01:44:57.531Z,2.42
2018-11-21T01:47:30.326Z,2.39
2018-11-21T01:50:03.097Z,2.43
2018-11-21T01:52:36.562Z,2.49
2018-11-21T01:55:09.549Z,2.46
2018-11-21T01:57:43.059Z,2.49
2018-11-21T02:00:19.206Z,2.52
2018-11-21T02:02:52.692Z,2.44
2018-11-21T02:05:25.536Z,2.48
2018-11-21T02:07:58.945Z,2.46
2018-11-21T02:10:32.069Z,2.43
2018-11-21T02:13:05.089Z,2.38
2018-11-21T02:15:38.532Z,2.34
2018-11-21T02:18:11.469Z,2.38
2018-11-21T02:20:44.278Z,2.42
2018-11-21T02:23:17.677Z,2.38
2018-11-21T02:25:50.461Z,2.32
2018-11-21T02:28:24.437Z,2.43
2018-11-21T02:30:58.926Z,2.49
2018-11-21T02:33:33.046Z,2.42
2018-11-21T02:36:06.642Z,2.38
2018-11-21T02:38:40.094Z,2.27
2018-11-21T02:41:12.890Z,2.16
2018-11-21T02:43:46.693Z,2.06
2018-11-21T02:46:20.195Z,2.09
2018-11-21T02:48:53.352Z,2.14
2018-11-21T02:51:26.273Z,2.07
2018-11-21T02:54:00.044Z,2.01
2018-11-21T02:56:55.197Z,2.01
2018-11-21T02:59:28.158Z,2.03
2018-11-21T03:02:01.604Z,1.93
2018-11-21T03:04:34.663Z,1.77
2018-11-21T03:07:07.787Z,1.67
2018-11-21T03:09:42.134Z,1.60
2018-11-21T03:12:15.366Z,1.51
2018-11-21T03:14:48.713Z,1.47
2018-11-21T03:17:23.081Z,1.45
2018-11-21T03:19:55.941Z,1.51
2018-11-21T03:22:28.691Z,1.50
2018-11-21T03:25:03.076Z,1.47
2018-11-21T03:27:35.944Z,1.38
2018-11-21T03:30:12.337Z,1.28
2018-11-21T03:32:45.606Z,1.24
2018-11-21T03:35:18.502Z,1.18
2018-11-21T03:37:51.317Z,1.16
2018-11-21T03:40:24.117Z,1.04
2018-11-21T03:42:57.759Z,0.87
2018-11-21T03:45:30.802Z,0.77
2018-11-21T03:48:03.779Z,0.65
2018-11-21T03:50:37.070Z,0.60
2018-11-21T03:53:10.160Z,0.57
2018-11-21T03:55:43.058Z,0.54
2018-11-21T03:58:16.211Z,0.54
2018-11-21T04:00:49.472Z,0.50
2018-11-21T04:03:22.208Z,0.44
2018-11-21T04:05:56.709Z,0.52
2018-11-21T04:08:29.441Z,0.59
2018-11-21T04:11:02.253Z,0.87
2018-11-21T04:13:35.684Z,0.99
2018-11-21T04:16:08.692Z,0.91
2018-11-21T04:18:41.574Z,0.96
2018-11-21T04:21:14.955Z,1.00
2018-11-21T04:23:47.757Z,0.99
2018-11-21T04:26:20.648Z,0.95
2018-11-21T04:28:53.954Z,0.94
2018-11-21T04:31:26.766Z,1.00
2018-11-21T04:33:59.763Z,1.08
2018-11-21T04:36:33.142Z,1.08
2018-11-21T04:41:44.261Z,1.10
2018-11-21T04:44:18.915Z,1.10
2018-11-21T04:46:52.945Z,1.06
2018-11-21T04:49:25.822Z,1.09
2018-11-21T04:51:59.744Z,1.26
2018-11-21T04:54:32.621Z,1.38
2018-11-21T04:57:05.558Z,1.43
2018-11-21T04:59:38.733Z,1.44
2018-11-21T05:02:11.541Z,1.41
2018-11-21T05:04:44.417Z,1.32
2018-11-21T05:07:21.280Z,1.18
2018-11-21T05:09:54.656Z,1.04
2018-11-21T05:12:27.416Z,0.88
2018-11-21T05:15:00.183Z,0.86
2018-11-21T05:17:36.662Z,0.75
2018-11-21T05:20:09.595Z,0.60
2018-11-21T05:22:43.456Z,0.49
2018-11-21T05:25:17.950Z,0.35
2018-11-21T05:27:50.817Z,0.25
2018-11-21T05:30:24.398Z,0.19
2018-11-21T05:32:58.070Z,0.15
2018-11-21T05:35:31.423Z,0.17
2018-11-21T05:38:05.941Z,0.29
2018-11-21T05:40:39.100Z,0.33
2018-11-21T05:43:13.998Z,0.24
2018-11-21T05:45:48.445Z,0.12
2018-11-21T05:48:21.786Z,-0.01
2018-11-21T05:50:55.416Z,-0.25
2018-11-21T05:53:28.369Z,-0.42
2018-11-21T05:56:02.361Z,-0.52
2018-11-21T05:58:35.341Z,-0.41
2018-11-21T06:01:09.277Z,-0.53
2018-11-21T06:03:42.349Z,-0.56
2018-11-21T06:06:15.261Z,-0.54
2018-11-21T06:08:48.557Z,-0.64
2018-11-21T06:11:21.664Z,-0.76
2018-11-21T06:13:54.605Z,-0.77
2018-11-21T06:16:27.439Z,-0.87
2018-11-21T06:19:00.292Z,-1.02
2018-11-21T06:21:33.733Z,-1.14
2018-11-21T06:24:06.567Z,-1.25
2018-11-21T06:26:40.708Z,-1.25
2018-11-21T06:29:15.687Z,-1.30
2018-11-21T06:31:49.919Z,-1.30
2018-11-21T06:34:23.691Z,-1.19
2018-11-21T06:36:56.489Z,-1.26
2018-11-21T06:39:30.065Z,-1.45
2018-11-21T06:42:02.949Z,-1.54
2018-11-21T06:44:36.507Z,-1.52
2018-11-21T06:47:12.243Z,-1.32
2018-11-21T06:49:45.747Z,-1.38
2018-11-21T06:52:22.268Z,-1.55
2018-11-21T06:54:53.417Z,-1.68
2018-11-21T06:57:26.381Z,-1.71
2018-11-21T06:59:59.438Z,-1.69
2018-11-21T07:02:32.739Z,-1.55
2018-11-21T07:05:27.999Z,-1.40
2018-11-21T07:08:01.455Z,-1.31
2018-11-21T07:10:36.111Z,-1.44
2018-11-21T07:13:11.186Z,-1.52
2018-11-21T07:15:42.996Z,-1.54
2018-11-21T07:18:26.641Z,-1.58
2018-11-21T07:21:00.461Z,-1.58
2018-11-21T07:23:35.330Z,-1.57
2018-11-21T07:26:09.078Z,-1.61
2018-11-21T07:28:41.923Z,-1.38
2018-11-21T07:31:15.565Z,-1.39
2018-11-21T07:33:48.785Z,-1.47
2018-11-21T07:36:22.304Z,-1.51
2018-11-21T07:38:55.744Z,-1.41
2018-11-21T07:41:29.488Z,-1.27
2018-11-21T07:44:03.125Z,-1.22
2018-11-21T07:46:36.849Z,-1.04
2018-11-21T07:49:10.414Z,-1.09
2018-11-21T07:51:43.768Z,-1.21
2018-11-21T07:54:17.141Z,-1.19
2018-11-21T07:57:33.432Z,-0.89
2018-11-21T08:00:42.949Z,-0.55
2018-11-21T08:03:16.576Z,-0.30
2018-11-21T08:05:54.313Z,-0.44
2018-11-21T08:08:41.626Z,-0.57
2018-11-21T08:11:32.489Z,-0.60
2018-11-21T08:14:12.352Z,-0.54
2018-11-21T08:17:08.193Z,-0.37
2018-11-21T08:20:01.611Z,-0.33
2018-11-21T08:22:45.537Z,-0.33
2018-11-21T08:25:44.036Z,-0.27
2018-11-21T08:28:24.191Z,-0.18
2018-11-21T08:30:57.940Z,0.11
2018-11-21T08:33:34.139Z,0.19
2018-11-21T08:36:05.736Z,0.14
2018-11-21T08:38:39.204Z,0.14
2018-11-21T08:43:49.369Z,0.07
2018-11-21T08:46:23.194Z,0.08
2018-11-21T08:49:00.461Z,0.18
2018-11-21T08:51:34.688Z,0.26
2018-11-21T08:54:10.826Z,0.38
2018-11-21T08:56:46.128Z,0.52
2018-11-21T08:59:19.153Z,0.73
2018-11-21T09:01:52.839Z,0.89
2018-11-21T09:04:26.597Z,1.02
2018-11-21T09:07:00.266Z,1.16
2018-11-21T09:09:33.602Z,1.26
2018-11-21T09:12:09.411Z,1.40
2018-11-21T09:14:44.757Z,1.46
2018-11-21T09:17:19.277Z,1.52
2018-11-21T09:19:54.253Z,1.50
2018-11-21T09:22:28.268Z,1.46
2018-11-21T09:25:01.532Z,1.44
2018-11-21T09:27:41.008Z,1.43
2018-11-21T09:30:18.483Z,1.55
2018-11-21T09:32:54.042Z,1.76
2018-11-21T09:35:29.624Z,1.89
2018-11-21T09:38:06.455Z,2.03
2018-11-21T09:40:39.239Z,2.16
2018-11-21T09:43:15.292Z,2.24
2018-11-21T09:45:48.578Z,2.36
2018-11-21T09:48:24.152Z,2.45
2018-11-21T09:50:57.970Z,2.56
2018-11-21T09:53:34.012Z,2.69
2018-11-21T09:56:08.118Z,2.88
2018-11-21T09:58:43.033Z,3.22
2018-11-21T10:01:38.667Z,3.42
2018-11-21T10:04:16.822Z,3.43
2018-11-21T10:06:49.781Z,3.51
2018-11-21T10:09:27.250Z,3.74
2018-11-21T10:12:00.431Z,4.13
2018-11-21T10:14:33.432Z,4.63
2018-11-21T10:17:10.081Z,5.03
2018-11-21T10:19:43.991Z,5.31
2018-11-21T10:22:17.531Z,5.54
2018-11-21T10:24:50.931Z,5.53
2018-11-21T10:27:23.942Z,5.34
2018-11-21T10:29:58.297Z,5.09
2018-11-21T10:32:33.444Z,4.85
2018-11-21T10:35:11.740Z,4.67
2018-11-21T10:37:44.227Z,4.50
2018-11-21T10:40:17.624Z,4.45
2018-11-21T10:42:51.857Z,4.55
2018-11-21T10:45:25.740Z,4.67
2018-11-21T10:47:59.455Z,4.89
2018-11-21T10:50:32.722Z,5.13
2018-11-21T10:53:06.273Z,5.42
2018-11-21T10:55:39.698Z,5.70
2018-11-21T10:58:15.520Z,5.96
2018-11-21T11:00:55.820Z,6.33
2018-11-21T11:03:31.788Z,6.78
2018-11-21T11:06:19.150Z,7.22
2018-11-21T11:09:17.431Z,7.68
2018-11-21T11:12:12.191Z,8.11
2018-11-21T11:14:51.388Z,8.51
2018-11-21T11:17:44.532Z,8.72
2018-11-21T11:20:32.767Z,8.75
2018-11-21T11:23:16.457Z,8.91
2018-11-21T11:26:11.819Z,9.20
2018-11-21T11:28:53.429Z,9.30
2018-11-21T11:31:49.537Z,9.47
2018-11-21T11:34:28.998Z,9.30
2018-11-21T11:37:06.968Z,8.90
2018-11-21T11:40:00.656Z,8.87
2018-11-21T11:42:56.783Z,9.34
2018-11-21T11:45:35.353Z,9.59
2018-11-21T11:48:21.704Z,9.42
2018-11-21T11:51:02.587Z,9.34
2018-11-21T11:53:55.630Z,9.06
2018-11-21T11:56:41.990Z,8.90
2018-11-21T11:59:27.003Z,9.00
2018-11-21T12:02:22.578Z,9.19
2018-11-21T12:05:22.332Z,9.57
2018-11-21T12:08:19.076Z,9.99
2018-11-21T12:11:12.749Z,9.92
2018-11-21T12:13:51.945Z,9.99
2018-11-21T12:16:48.325Z,9.65
2018-11-21T12:19:56.022Z,9.41
2018-11-21T12:22:54.610Z,9.29
2018-11-21T12:25:49.158Z,9.35
2018-11-21T12:28:43.232Z,9.75
2018-11-21T12:31:21.690Z,10.04
2018-11-21T12:34:00.056Z,10.14
2018-11-21T12:36:52.870Z,10.14
2018-11-21T12:40:04.556Z,10.08
2018-11-21T12:42:42.947Z,10.15
2018-11-21T12:45:39.207Z,10.33
2018-11-21T12:48:41.898Z,10.50
2018-11-21T12:51:32.384Z,10.50
2018-11-21T12:54:12.003Z,10.47
2018-11-21T12:56:51.633Z,10.50
2018-11-21T12:59:42.677Z,10.55
2018-11-21T13:02:38.360Z,10.60
2018-11-21T13:05:35.876Z,10.44
2018-11-21T13:08:31.385Z,9.85
2018-11-21T13:11:39.180Z,9.16
2018-11-21T13:14:29.369Z,8.77
2018-11-21T13:17:08.256Z,8.54
2018-11-21T13:20:01.152Z,8.24
2018-11-21T13:22:42.024Z,8.05
2018-11-21T13:25:22.457Z,7.93
2018-11-21T13:28:10.698Z,7.77
2018-11-21T13:31:01.402Z,7.47
2018-11-21T13:33:40.216Z,7.19
2018-11-21T13:36:19.275Z,6.91
2018-11-21T13:38:59.141Z,6.67
2018-11-21T13:41:39.456Z,6.48
2018-11-21T13:44:21.839Z,6.33
2018-11-21T13:47:10.044Z,6.17
2018-11-21T13:50:03.158Z,6.04
2018-11-21T13:53:01.719Z,5.92
2018-11-21T13:55:36.920Z,5.87
2018-11-21T13:58:11.601Z,5.84
2018-11-21T14:00:46.916Z,5.80
2018-11-21T14:03:21.929Z,5.77
2018-11-21T14:05:55.696Z,5.76
2018-11-21T14:08:28.668Z,5.74
2018-11-21T14:11:04.183Z,5.73
2018-11-21T14:13:40.708Z,5.74
2018-11-21T14:16:14.961Z,5.74
2018-11-21T14:18:51.344Z,5.74
2018-11-21T14:21:28.122Z,5.72
2018-11-21T14:24:01.148Z,5.68
2018-11-21T14:26:43.765Z,5.61
2018-11-21T14:29:21.700Z,5.55
2018-11-21T14:31:59.335Z,5.48
2018-11-21T14:34:37.971Z,5.44
2018-11-21T14:37:19.330Z,5.42
2018-11-21T14:39:55.295Z,5.39
2018-11-21T14:42:29.752Z,5.36
2018-11-21T14:45:08.730Z,5.28
2018-11-21T14:47:47.827Z,5.18
2018-11-21T14:50:28.672Z,5.09
2018-11-21T14:53:03.475Z,5.01
2018-11-21T14:55:38.960Z,4.92
2018-11-21T14:58:16.992Z,4.85
2018-11-21T15:00:52.089Z,4.76
2018-11-21T15:03:28.896Z,4.72
2018-11-21T15:06:03.113Z,4.65
2018-11-21T15:08:37.607Z,4.58
2018-11-21T15:11:12.847Z,4.51
2018-11-21T15:13:48.583Z,4.43
2018-11-21T15:16:23.481Z,4.36
2018-11-21T15:18:57.190Z,4.27
2018-11-21T15:21:31.837Z,4.16
2018-11-21T15:24:06.287Z,4.07
2018-11-21T15:26:43.093Z,3.99
2018-11-21T15:29:20.617Z,3.92
2018-11-21T15:31:58.039Z,3.85
2018-11-21T15:34:35.773Z,3.78
2018-11-21T15:37:09.907Z,3.74
2018-11-21T15:39:43.674Z,3.66
2018-11-21T15:42:17.711Z,3.62
2018-11-21T15:44:52.303Z,3.58
2018-11-21T15:47:26.690Z,3.49
2018-11-21T15:50:05.275Z,3.45
2018-11-21T15:52:40.973Z,3.36
2018-11-21T15:55:16.254Z,3.28
2018-11-21T15:57:50.667Z,3.15
2018-11-21T16:00:29.827Z,3.04
2018-11-21T16:03:06.790Z,2.95
2018-11-21T16:05:40.361Z,2.84
2018-11-21T16:08:16.416Z,2.73
2018-11-21T16:10:56.534Z,2.65
2018-11-21T16:13:30.247Z,2.59
2018-11-21T16:16:05.451Z,2.52
2018-11-21T16:18:42.784Z,2.46
2018-11-21T16:21:17.335Z,2.42
2018-11-21T16:23:52.193Z,2.34
2018-11-21T16:26:28.015Z,2.20
2018-11-21T16:29:06.919Z,2.14
2018-11-21T16:31:43.631Z,2.22
2018-11-21T16:34:38.441Z,2.10
2018-11-21T16:37:17.656Z,1.93
2018-11-21T16:39:51.435Z,1.78
2018-11-21T16:42:27.197Z,1.73
2018-11-21T16:45:05.094Z,1.75
2018-11-21T16:47:38.680Z,1.69
2018-11-21T16:50:16.968Z,1.64
2018-11-21T16:52:52.417Z,1.52
2018-11-21T16:55:27.269Z,1.41
2018-11-21T16:58:04.337Z,1.33
2018-11-21T17:00:38.841Z,1.23
2018-11-21T17:03:19.273Z,1.10
2018-11-21T17:05:53.180Z,1.06
2018-11-21T17:08:29.213Z,0.98
2018-11-21T17:11:03.262Z,0.97
2018-11-21T17:13:42.993Z,0.96
2018-11-21T17:16:16.409Z,0.92
2018-11-21T17:18:55.406Z,0.86
2018-11-21T17:21:30.697Z,0.77
2018-11-21T17:24:04.983Z,0.66
2018-11-21T17:26:39.302Z,0.60
2018-11-21T17:29:12.562Z,0.54
2018-11-21T17:31:48.291Z,0.53
2018-11-21T17:34:22.324Z,0.54
2018-11-21T17:36:56.058Z,0.59
2018-11-21T17:39:31.219Z,0.67
2018-11-21T17:42:07.882Z,0.74
2018-11-21T17:44:41.018Z,0.76
2018-11-21T17:47:16.987Z,0.98
2018-11-21T17:49:52.510Z,1.08
2018-11-21T17:52:27.625Z,1.17
2018-11-21T17:55:02.340Z,1.37
2018-11-21T17:57:36.663Z,1.48
2018-11-21T18:00:20.639Z,1.56
2018-11-21T18:02:57.788Z,1.61
2018-11-21T18:05:35.114Z,1.70
2018-11-21T18:08:09.894Z,1.84
2018-11-21T18:10:48.017Z,1.94
2018-11-21T18:13:21.137Z,1.98
2018-11-21T18:15:55.181Z,2.04
2018-11-21T18:18:39.129Z,2.17
2018-11-21T18:21:19.760Z,2.25
2018-11-21T18:23:47.148Z,2.34
2018-11-21T18:26:21.374Z,2.44
2018-11-21T18:28:58.086Z,2.52
2018-11-21T18:31:32.104Z,2.62
2018-11-21T18:34:06.200Z,2.71
2018-11-21T18:36:42.627Z,2.86
2018-11-21T18:39:16.804Z,3.16
2018-11-21T18:41:57.986Z,3.62
2018-11-21T18:44:27.979Z,3.77
2018-11-21T18:47:05.905Z,3.68
2018-11-21T18:49:39.544Z,3.50
2018-11-21T18:52:16.861Z,3.39
2018-11-21T18:54:52.133Z,3.33
2018-11-21T18:57:47.412Z,3.30
2018-11-21T19:00:26.611Z,3.28
2018-11-21T19:03:02.205Z,3.27
2018-11-21T19:05:38.854Z,3.27
2018-11-21T19:08:13.876Z,3.26
2018-11-21T19:10:51.373Z,3.28
2018-11-21T19:13:28.394Z,3.27
2018-11-21T19:16:12.275Z,3.28
2018-11-21T19:18:48.467Z,3.29
2018-11-21T19:21:22.593Z,3.29
2018-11-21T19:23:57.807Z,3.29
2018-11-21T19:26:34.111Z,3.28
2018-11-21T19:29:08.807Z,3.28
2018-11-21T19:31:57.186Z,3.29
2018-11-21T19:34:30.502Z,3.29
2018-11-21T19:37:04.703Z,3.30
2018-11-21T19:39:38.082Z,3.31
2018-11-21T19:42:12.514Z,3.33
2018-11-21T19:44:51.765Z,3.34
2018-11-21T19:47:26.607Z,3.36
2018-11-21T19:50:08.093Z,3.41
2018-11-21T19:52:42.790Z,3.41
2018-11-21T19:55:21.587Z,3.42
2018-11-21T19:57:55.827Z,3.41
2018-11-21T20:00:33.723Z,3.43
2018-11-21T20:03:10.265Z,3.45
2018-11-21T20:05:49.278Z,3.46
2018-11-21T20:08:22.805Z,3.49
2018-11-21T20:10:56.649Z,3.55
2018-11-21T20:13:32.147Z,3.56
2018-11-21T20:16:06.876Z,3.56
2018-11-21T20:18:40.172Z,3.59
2018-11-21T20:21:14.605Z,3.63
2018-11-21T20:23:47.793Z,3.71
2018-11-21T20:26:21.177Z,3.71
2018-11-21T20:28:58.093Z,3.69
2018-11-21T20:31:31.586Z,3.70
2018-11-21T20:34:05.772Z,3.71
2018-11-21T20:36:40.370Z,3.77
2018-11-21T20:39:15.976Z,3.76
2018-11-21T20:41:51.501Z,3.75
2018-11-21T20:44:25.601Z,3.77
2018-11-21T20:47:00.476Z,3.77
2018-11-21T20:49:36.846Z,3.79
2018-11-21T20:52:12.830Z,3.82
2018-11-21T20:54:50.345Z,3.88
2018-11-21T20:57:29.506Z,3.90
2018-11-21T21:00:07.423Z,3.92
2018-11-21T21:02:41.516Z,3.94
2018-11-21T21:05:17.485Z,3.97
2018-11-21T21:07:55.783Z,3.98
2018-11-21T21:10:32.341Z,4.05
2018-11-21T21:13:06.578Z,4.06
2018-11-21T21:15:40.990Z,4.06
2018-11-21T21:18:19.621Z,4.05
2018-11-21T21:20:53.988Z,4.06
2018-11-21T21:23:28.866Z,4.09
2018-11-21T21:26:04.645Z,4.11
2018-11-21T21:28:40.815Z,4.12
2018-11-21T21:31:16.153Z,4.13
2018-11-21T21:33:49.911Z,4.17
2018-11-21T21:36:26.275Z,4.17
2018-11-21T21:38:59.540Z,4.15
2018-11-21T21:41:34.435Z,4.15
2018-11-21T21:44:09.389Z,4.14
2018-11-21T21:46:42.738Z,4.16
2018-11-21T21:49:20.124Z,4.16
2018-11-21T21:51:53.385Z,4.20
2018-11-21T21:54:39.606Z,4.19
2018-11-21T21:57:14.557Z,4.19
2018-11-21T21:59:47.849Z,4.21
2018-11-21T22:02:24.847Z,4.22
2018-11-21T22:05:01.158Z,4.21
2018-11-21T22:07:36.944Z,4.21
2018-11-21T22:10:14.144Z,4.22
2018-11-21T22:12:53.110Z,4.22
2018-11-21T22:15:36.990Z,4.22
2018-11-21T22:18:15.617Z,4.21
2018-11-21T22:20:49.387Z,4.21
2018-11-21T22:23:22.961Z,4.20
2018-11-21T22:25:59.095Z,4.20
2018-11-21T22:28:33.968Z,4.19
2018-11-21T22:31:09.824Z,4.20
2018-11-21T22:33:48.105Z,4.20
2018-11-21T22:36:21.721Z,4.20
2018-11-21T22:38:56.721Z,4.20
2018-11-21T22:41:31.278Z,4.20
2018-11-21T22:44:05.278Z,4.20
2018-11-21T22:46:38.982Z,4.20
2018-11-21T22:49:12.821Z,4.20
2018-11-21T22:51:47.718Z,4.21
2018-11-21T22:54:23.298Z,4.21
2018-11-21T22:56:56.938Z,4.22
2018-11-21T22:59:33.002Z,4.23
2018-11-21T23:02:08.508Z,4.24
2018-11-21T23:04:42.548Z,4.29
2018-11-21T23:07:15.532Z,4.35
2018-11-21T23:09:49.318Z,4.33
2018-11-21T23:12:24.607Z,4.35
2018-11-21T23:14:57.312Z,4.32
2018-11-21T23:17:31.985Z,4.31
2018-11-21T23:20:11.396Z,4.31
2018-11-21T23:22:45.521Z,4.30
2018-11-21T23:25:18.964Z,4.30
2018-11-21T23:27:52.633Z,4.29
2018-11-21T23:30:26.833Z,4.29
2018-11-21T23:33:03.611Z,4.27
2018-11-21T23:35:37.576Z,4.27
2018-11-21T23:38:11.286Z,4.27
2018-11-21T23:40:45.428Z,4.29
2018-11-21T23:43:18.271Z,4.29
2018-11-21T23:45:51.473Z,4.29
2018-11-21T23:48:29.629Z,4.30
2018-11-21T23:51:04.191Z,4.31
2018-11-21T23:53:37.617Z,4.32
2018-11-21T23:56:11.379Z,4.33
2018-11-21T23:58:44.168Z,4.33
